Talmadge, Maine
Current Conditions -  °F | °C
As of 4:53 PM on Sunday 23 Nov 2014 (Local Time) from KHUL Reporting Station
Overcast Overcast  
Wind Chill:   Ceiling: 3000
Heat Index:   Visibility: 10mi
Dew Point: -1°   Wind: 3mph
Humidity: 82%   Direction: 190°S
Pressure: 30.08"   Gusts: NA
Location:  45.3759°N, 67.6018°W
Report Text: KHUL 232153Z AUTO 19003KT 10SM BKN030 OVC039 02/M01 A3008 RMK AO2 SLP193 T00171011
Loading
Personal Weather Stations






























Interactive Weather Map New forecast layout! Learn more

10-Day Weather Forecast

Advertisements
Track Severe Weather on mobile